sensor_id;sensor_type;location;lat;lon;timestamp;P1;P2;P0
76238;PMS7003;65043;48.392;-4.472;2024-01-10T00:01:17;37.75;26.50;18.00
76238;PMS7003;65043;48.392;-4.472;2024-01-10T00:03:44;25.50;25.50;16.25
76238;PMS7003;65043;48.392;-4.472;2024-01-10T00:06:10;34.00;26.75;16.50
76238;PMS7003;65043;48.392;-4.472;2024-01-10T00:08:36;35.00;30.50;17.75
76238;PMS7003;65043;48.392;-4.472;2024-01-10T00:11:02;38.75;31.25;19.25
76238;PMS7003;65043;48.392;-4.472;2024-01-10T00:13:28;32.00;29.25;17.50
76238;PMS7003;65043;48.392;-4.472;2024-01-10T00:15:54;42.00;32.00;19.00
76238;PMS7003;65043;48.392;-4.472;2024-01-10T00:18:20;34.50;27.75;16.00
76238;PMS7003;65043;48.392;-4.472;2024-01-10T00:20:46;33.50;32.00;18.75
76238;PMS7003;65043;48.392;-4.472;2024-01-10T00:23:12;36.50;28.25;14.75
76238;PMS7003;65043;48.392;-4.472;2024-01-10T00:25:38;39.00;31.25;20.25
76238;PMS7003;65043;48.392;-4.472;2024-01-10T00:28:04;35.50;30.75;19.00
76238;PMS7003;65043;48.392;-4.472;2024-01-10T00:30:30;34.00;28.50;15.50
76238;PMS7003;65043;48.392;-4.472;2024-01-10T00:32:55;32.75;29.75;19.00
76238;PMS7003;65043;48.392;-4.472;2024-01-10T00:35:20;31.00;30.00;15.25
76238;PMS7003;65043;48.392;-4.472;2024-01-10T00:37:46;32.75;27.25;18.50
76238;PMS7003;65043;48.392;-4.472;2024-01-10T00:40:12;33.25;32.25;19.50
76238;PMS7003;65043;48.392;-4.472;2024-01-10T00:42:37;37.50;27.50;15.75
76238;PMS7003;65043;48.392;-4.472;2024-01-10T00:45:02;36.25;26.75;15.50
76238;PMS7003;65043;48.392;-4.472;2024-01-10T00:47:28;40.50;30.00;18.75
76238;PMS7003;65043;48.392;-4.472;2024-01-10T00:49:54;33.50;25.00;17.00
76238;PMS7003;65043;48.392;-4.472;2024-01-10T00:52:20;33.50;28.25;15.00
76238;PMS7003;65043;48.392;-4.472;2024-01-10T00:54:46;35.00;29.25;19.00
76238;PMS7003;65043;48.392;-4.472;2024-01-10T00:57:11;28.75;23.50;16.00
76238;PMS7003;65043;48.392;-4.472;2024-01-10T00:59:37;37.50;28.00;18.00
76238;PMS7003;65043;48.392;-4.472;2024-01-10T01:02:02;38.00;31.00;20.00
76238;PMS7003;65043;48.392;-4.472;2024-01-10T01:04:28;30.75;29.25;17.25
76238;PMS7003;65043;48.392;-4.472;2024-01-10T01:06:53;34.00;30.25;19.75
76238;PMS7003;65043;48.392;-4.472;2024-01-10T01:09:19;35.25;26.25;18.50
76238;PMS7003;65043;48.392;-4.472;2024-01-10T01:11:44;36.00;28.00;16.50
76238;PMS7003;65043;48.392;-4.472;2024-01-10T01:14:10;38.50;29.25;18.25
76238;PMS7003;65043;48.392;-4.472;2024-01-10T01:16:36;34.00;29.25;16.75
76238;PMS7003;65043;48.392;-4.472;2024-01-10T01:19:01;35.50;28.00;18.50
76238;PMS7003;65043;48.392;-4.472;2024-01-10T01:21:27;33.50;30.50;16.25
76238;PMS7003;65043;48.392;-4.472;2024-01-10T01:23:53;41.75;31.25;18.25
76238;PMS7003;65043;48.392;-4.472;2024-01-10T01:26:19;41.00;29.25;18.00
76238;PMS7003;65043;48.392;-4.472;2024-01-10T01:28:45;37.50;27.25;18.50
76238;PMS7003;65043;48.392;-4.472;2024-01-10T01:31:10;28.25;25.25;15.25
76238;PMS7003;65043;48.392;-4.472;2024-01-10T01:33:36;41.50;27.25;15.00
76238;PMS7003;65043;48.392;-4.472;2024-01-10T01:36:01;40.25;30.25;17.25
76238;PMS7003;65043;48.392;-4.472;2024-01-10T01:38:27;37.75;29.00;19.25
76238;PMS7003;65043;48.392;-4.472;2024-01-10T01:40:52;35.75;28.75;18.00
76238;PMS7003;65043;48.392;-4.472;2024-01-10T01:43:22;36.75;30.50;17.50
76238;PMS7003;65043;48.392;-4.472;2024-01-10T01:45:57;32.25;27.75;17.50
76238;PMS7003;65043;48.392;-4.472;2024-01-10T01:48:24;45.75;34.75;19.25
76238;PMS7003;65043;48.392;-4.472;2024-01-10T01:51:11;42.75;33.75;19.00
76238;PMS7003;65043;48.392;-4.472;2024-01-10T01:53:37;34.50;25.25;14.00
76238;PMS7003;65043;48.392;-4.472;2024-01-10T01:56:08;33.50;28.00;19.25
76238;PMS7003;65043;48.392;-4.472;2024-01-10T01:58:35;31.25;27.75;17.25
76238;PMS7003;65043;48.392;-4.472;2024-01-10T02:01:02;28.50;23.25;18.00
76238;PMS7003;65043;48.392;-4.472;2024-01-10T02:03:30;39.00;34.00;19.00
76238;PMS7003;65043;48.392;-4.472;2024-01-10T02:05:57;27.50;27.00;17.50
76238;PMS7003;65043;48.392;-4.472;2024-01-10T02:08:22;31.75;23.50;11.75
76238;PMS7003;65043;48.392;-4.472;2024-01-10T02:10:48;36.50;30.75;18.75
76238;PMS7003;65043;48.392;-4.472;2024-01-10T02:13:14;39.50;33.00;19.00
76238;PMS7003;65043;48.392;-4.472;2024-01-10T02:15:40;36.00;30.00;17.50
76238;PMS7003;65043;48.392;-4.472;2024-01-10T02:18:06;34.50;26.50;16.00
76238;PMS7003;65043;48.392;-4.472;2024-01-10T02:20:31;29.50;25.25;15.25
76238;PMS7003;65043;48.392;-4.472;2024-01-10T02:22:57;39.75;28.00;16.00
76238;PMS7003;65043;48.392;-4.472;2024-01-10T02:25:22;46.25;29.50;18.00
76238;PMS7003;65043;48.392;-4.472;2024-01-10T02:27:48;30.75;29.25;17.50
76238;PMS7003;65043;48.392;-4.472;2024-01-10T02:30:14;34.25;27.75;18.00
76238;PMS7003;65043;48.392;-4.472;2024-01-10T02:32:39;29.50;27.00;16.75
76238;PMS7003;65043;48.392;-4.472;2024-01-10T02:35:05;36.50;29.75;15.75
76238;PMS7003;65043;48.392;-4.472;2024-01-10T02:37:31;34.50;28.25;17.25
76238;PMS7003;65043;48.392;-4.472;2024-01-10T02:39:56;42.50;28.75;15.75
76238;PMS7003;65043;48.392;-4.472;2024-01-10T02:42:22;33.00;28.50;17.75
76238;PMS7003;65043;48.392;-4.472;2024-01-10T02:44:47;25.25;23.25;16.25
76238;PMS7003;65043;48.392;-4.472;2024-01-10T02:47:13;34.75;27.50;16.00
76238;PMS7003;65043;48.392;-4.472;2024-01-10T02:49:41;33.25;21.00;14.00
76238;PMS7003;65043;48.392;-4.472;2024-01-10T02:52:06;40.25;31.25;16.50
76238;PMS7003;65043;48.392;-4.472;2024-01-10T02:54:32;31.75;26.50;16.75
76238;PMS7003;65043;48.392;-4.472;2024-01-10T02:56:57;33.50;24.25;14.50
76238;PMS7003;65043;48.392;-4.472;2024-01-10T02:59:23;27.00;21.00;14.75
76238;PMS7003;65043;48.392;-4.472;2024-01-10T03:01:48;35.00;28.00;15.00
76238;PMS7003;65043;48.392;-4.472;2024-01-10T03:04:14;33.00;28.50;17.75
76238;PMS7003;65043;48.392;-4.472;2024-01-10T03:06:39;33.50;27.00;17.50
76238;PMS7003;65043;48.392;-4.472;2024-01-10T03:09:05;28.50;23.75;14.00
76238;PMS7003;65043;48.392;-4.472;2024-01-10T03:11:30;36.00;28.75;18.75
76238;PMS7003;65043;48.392;-4.472;2024-01-10T03:14:03;30.25;24.50;15.00
76238;PMS7003;65043;48.392;-4.472;2024-01-10T03:16:32;35.25;28.50;14.00
76238;PMS7003;65043;48.392;-4.472;2024-01-10T03:18:57;29.75;22.00;15.00
76238;PMS7003;65043;48.392;-4.472;2024-01-10T03:21:23;35.25;27.25;17.50
76238;PMS7003;65043;48.392;-4.472;2024-01-10T03:23:50;44.25;30.50;18.50
76238;PMS7003;65043;48.392;-4.472;2024-01-10T03:26:16;31.00;26.25;15.25
76238;PMS7003;65043;48.392;-4.472;2024-01-10T03:28:41;35.25;27.50;14.75
76238;PMS7003;65043;48.392;-4.472;2024-01-10T03:31:07;36.00;29.00;18.00
76238;PMS7003;65043;48.392;-4.472;2024-01-10T03:33:32;35.00;28.75;16.50
76238;PMS7003;65043;48.392;-4.472;2024-01-10T03:35:58;32.25;27.50;18.00
76238;PMS7003;65043;48.392;-4.472;2024-01-10T03:38:23;33.75;26.25;16.50
76238;PMS7003;65043;48.392;-4.472;2024-01-10T03:40:49;37.50;28.00;18.50
76238;PMS7003;65043;48.392;-4.472;2024-01-10T03:43:14;38.75;24.75;13.25
76238;PMS7003;65043;48.392;-4.472;2024-01-10T03:45:41;30.25;27.25;20.00
76238;PMS7003;65043;48.392;-4.472;2024-01-10T03:48:07;31.75;25.50;15.25
76238;PMS7003;65043;48.392;-4.472;2024-01-10T03:50:33;40.50;30.25;17.50
76238;PMS7003;65043;48.392;-4.472;2024-01-10T03:52:58;35.00;28.50;18.25
76238;PMS7003;65043;48.392;-4.472;2024-01-10T03:55:23;36.50;29.75;16.75
76238;PMS7003;65043;48.392;-4.472;2024-01-10T03:57:49;27.25;23.50;16.50
76238;PMS7003;65043;48.392;-4.472;2024-01-10T04:00:14;33.25;29.50;17.50
76238;PMS7003;65043;48.392;-4.472;2024-01-10T04:02:40;36.25;30.00;17.50
76238;PMS7003;65043;48.392;-4.472;2024-01-10T04:05:06;40.25;30.25;17.50
76238;PMS7003;65043;48.392;-4.472;2024-01-10T04:07:36;36.75;30.50;17.50
76238;PMS7003;65043;48.392;-4.472;2024-01-10T04:10:01;37.75;29.00;16.00
76238;PMS7003;65043;48.392;-4.472;2024-01-10T04:12:27;41.25;33.50;18.25
76238;PMS7003;65043;48.392;-4.472;2024-01-10T04:14:53;42.75;29.75;16.75
76238;PMS7003;65043;48.392;-4.472;2024-01-10T04:17:18;36.50;29.75;19.00
76238;PMS7003;65043;48.392;-4.472;2024-01-10T04:19:44;37.00;30.75;18.75
76238;PMS7003;65043;48.392;-4.472;2024-01-10T04:22:09;32.00;27.25;16.75
76238;PMS7003;65043;48.392;-4.472;2024-01-10T04:24:35;34.75;25.75;17.00
76238;PMS7003;65043;48.392;-4.472;2024-01-10T04:27:00;35.25;27.25;17.50
76238;PMS7003;65043;48.392;-4.472;2024-01-10T04:29:26;34.25;28.75;17.00
76238;PMS7003;65043;48.392;-4.472;2024-01-10T04:31:51;35.50;27.25;17.25
76238;PMS7003;65043;48.392;-4.472;2024-01-10T04:34:17;33.75;27.75;17.00
76238;PMS7003;65043;48.392;-4.472;2024-01-10T04:36:43;30.25;29.75;17.00
76238;PMS7003;65043;48.392;-4.472;2024-01-10T04:39:08;29.75;28.50;17.00
76238;PMS7003;65043;48.392;-4.472;2024-01-10T04:41:34;33.50;26.25;15.25
76238;PMS7003;65043;48.392;-4.472;2024-01-10T04:43:59;37.50;31.25;18.75
76238;PMS7003;65043;48.392;-4.472;2024-01-10T04:46:25;24.00;17.50;14.25
76238;PMS7003;65043;48.392;-4.472;2024-01-10T04:48:50;31.00;27.50;16.00
76238;PMS7003;65043;48.392;-4.472;2024-01-10T04:51:16;31.25;23.00;14.00
76238;PMS7003;65043;48.392;-4.472;2024-01-10T04:53:42;26.25;21.75;14.00
76238;PMS7003;65043;48.392;-4.472;2024-01-10T04:56:07;29.00;16.50;8.25
76238;PMS7003;65043;48.392;-4.472;2024-01-10T04:58:33;32.75;26.75;17.00
76238;PMS7003;65043;48.392;-4.472;2024-01-10T05:00:59;38.00;32.00;17.25
76238;PMS7003;65043;48.392;-4.472;2024-01-10T05:03:24;33.25;22.00;15.25
76238;PMS7003;65043;48.392;-4.472;2024-01-10T05:05:50;30.75;25.25;13.25
76238;PMS7003;65043;48.392;-4.472;2024-01-10T05:08:15;26.75;25.50;14.00
76238;PMS7003;65043;48.392;-4.472;2024-01-10T05:10:45;34.25;24.25;13.00
76238;PMS7003;65043;48.392;-4.472;2024-01-10T05:13:12;34.75;29.25;15.25
76238;PMS7003;65043;48.392;-4.472;2024-01-10T05:15:37;40.50;27.50;16.75
76238;PMS7003;65043;48.392;-4.472;2024-01-10T05:18:03;37.75;30.25;17.00
76238;PMS7003;65043;48.392;-4.472;2024-01-10T05:20:28;32.25;26.75;16.00
76238;PMS7003;65043;48.392;-4.472;2024-01-10T05:22:56;32.00;25.00;15.50
76238;PMS7003;65043;48.392;-4.472;2024-01-10T05:25:23;36.50;27.75;16.50
76238;PMS7003;65043;48.392;-4.472;2024-01-10T05:27:50;31.00;26.00;15.50
76238;PMS7003;65043;48.392;-4.472;2024-01-10T05:30:15;33.75;26.75;17.25
76238;PMS7003;65043;48.392;-4.472;2024-01-10T05:32:43;27.75;23.00;15.00
76238;PMS7003;65043;48.392;-4.472;2024-01-10T05:35:09;37.25;30.75;17.75
76238;PMS7003;65043;48.392;-4.472;2024-01-10T05:37:35;34.50;27.50;13.75
76238;PMS7003;65043;48.392;-4.472;2024-01-10T05:40:01;27.75;24.00;16.75
76238;PMS7003;65043;48.392;-4.472;2024-01-10T05:42:29;35.50;31.50;17.75
76238;PMS7003;65043;48.392;-4.472;2024-01-10T05:44:55;42.00;26.00;15.00
76238;PMS7003;65043;48.392;-4.472;2024-01-10T05:47:20;36.50;27.00;16.00
76238;PMS7003;65043;48.392;-4.472;2024-01-10T05:49:46;32.25;29.50;17.00
76238;PMS7003;65043;48.392;-4.472;2024-01-10T05:52:11;34.00;28.50;18.00
76238;PMS7003;65043;48.392;-4.472;2024-01-10T05:54:38;34.00;26.25;17.00
76238;PMS7003;65043;48.392;-4.472;2024-01-10T05:57:06;32.50;24.50;17.50
76238;PMS7003;65043;48.392;-4.472;2024-01-10T05:59:31;35.75;28.50;16.50
76238;PMS7003;65043;48.392;-4.472;2024-01-10T06:01:57;29.25;27.00;14.00
76238;PMS7003;65043;48.392;-4.472;2024-01-10T06:04:23;38.50;29.50;17.00
76238;PMS7003;65043;48.392;-4.472;2024-01-10T06:06:49;44.75;36.00;20.25
76238;PMS7003;65043;48.392;-4.472;2024-01-10T06:09:15;50.25;32.00;19.50
76238;PMS7003;65043;48.392;-4.472;2024-01-10T06:11:46;39.75;32.00;18.00
76238;PMS7003;65043;48.392;-4.472;2024-01-10T06:14:12;36.50;28.75;14.25
76238;PMS7003;65043;48.392;-4.472;2024-01-10T06:16:38;43.25;29.50;16.25
76238;PMS7003;65043;48.392;-4.472;2024-01-10T06:19:03;40.75;31.50;16.50
76238;PMS7003;65043;48.392;-4.472;2024-01-10T06:21:29;34.00;27.75;14.75
76238;PMS7003;65043;48.392;-4.472;2024-01-10T06:23:54;42.25;32.25;18.25
76238;PMS7003;65043;48.392;-4.472;2024-01-10T06:26:20;45.50;35.00;19.00
76238;PMS7003;65043;48.392;-4.472;2024-01-10T06:28:47;28.50;24.75;17.75
76238;PMS7003;65043;48.392;-4.472;2024-01-10T06:31:12;24.75;23.50;15.50
76238;PMS7003;65043;48.392;-4.472;2024-01-10T06:33:38;36.25;28.00;16.00
76238;PMS7003;65043;48.392;-4.472;2024-01-10T06:36:04;42.00;30.75;16.75
76238;PMS7003;65043;48.392;-4.472;2024-01-10T06:38:29;36.75;29.75;18.75
76238;PMS7003;65043;48.392;-4.472;2024-01-10T06:40:55;32.75;27.25;17.00
76238;PMS7003;65043;48.392;-4.472;2024-01-10T06:43:20;34.50;25.75;16.00
76238;PMS7003;65043;48.392;-4.472;2024-01-10T06:45:46;29.50;27.50;15.25
76238;PMS7003;65043;48.392;-4.472;2024-01-10T06:48:13;35.25;27.75;16.75
76238;PMS7003;65043;48.392;-4.472;2024-01-10T06:50:38;38.50;28.50;17.25
76238;PMS7003;65043;48.392;-4.472;2024-01-10T06:53:04;41.75;31.25;16.25
76238;PMS7003;65043;48.392;-4.472;2024-01-10T06:55:29;42.00;33.75;17.00
76238;PMS7003;65043;48.392;-4.472;2024-01-10T06:57:55;31.00;26.50;17.75
76238;PMS7003;65043;48.392;-4.472;2024-01-10T07:00:21;32.75;24.75;12.50
76238;PMS7003;65043;48.392;-4.472;2024-01-10T07:02:47;38.00;28.75;16.75
76238;PMS7003;65043;48.392;-4.472;2024-01-10T07:05:15;44.50;31.75;21.00
76238;PMS7003;65043;48.392;-4.472;2024-01-10T07:07:41;37.00;29.75;19.75
76238;PMS7003;65043;48.392;-4.472;2024-01-10T07:10:07;38.75;30.50;18.50
76238;PMS7003;65043;48.392;-4.472;2024-01-10T07:12:33;34.00;28.50;16.75
76238;PMS7003;65043;48.392;-4.472;2024-01-10T07:14:59;41.75;31.00;19.50
76238;PMS7003;65043;48.392;-4.472;2024-01-10T07:17:25;35.00;33.50;18.25
76238;PMS7003;65043;48.392;-4.472;2024-01-10T07:19:50;38.00;27.75;14.25
76238;PMS7003;65043;48.392;-4.472;2024-01-10T07:22:16;36.75;31.25;16.25
76238;PMS7003;65043;48.392;-4.472;2024-01-10T07:24:43;46.00;32.75;17.75
76238;PMS7003;65043;48.392;-4.472;2024-01-10T07:27:08;35.25;24.75;14.00
76238;PMS7003;65043;48.392;-4.472;2024-01-10T07:29:34;42.25;36.00;20.00
76238;PMS7003;65043;48.392;-4.472;2024-01-10T07:32:00;43.00;33.25;19.75
76238;PMS7003;65043;48.392;-4.472;2024-01-10T07:34:25;77.50;60.00;35.25
76238;PMS7003;65043;48.392;-4.472;2024-01-10T07:36:51;176.75;134.75;61.75
76238;PMS7003;65043;48.392;-4.472;2024-01-10T07:39:19;82.25;60.50;35.25
76238;PMS7003;65043;48.392;-4.472;2024-01-10T07:41:44;67.75;50.50;32.50
76238;PMS7003;65043;48.392;-4.472;2024-01-10T07:44:10;45.25;35.75;24.00
76238;PMS7003;65043;48.392;-4.472;2024-01-10T07:46:35;39.00;30.75;17.25
76238;PMS7003;65043;48.392;-4.472;2024-01-10T07:49:03;20.50;11.50;3.75
76238;PMS7003;65043;48.392;-4.472;2024-01-10T07:51:30;38.75;32.25;16.50
76238;PMS7003;65043;48.392;-4.472;2024-01-10T07:53:55;39.75;35.00;16.50
76238;PMS7003;65043;48.392;-4.472;2024-01-10T07:56:21;37.75;27.25;17.75
76238;PMS7003;65043;48.392;-4.472;2024-01-10T07:58:47;49.00;36.00;21.25
76238;PMS7003;65043;48.392;-4.472;2024-01-10T08:01:13;46.25;33.75;21.25
76238;PMS7003;65043;48.392;-4.472;2024-01-10T08:03:42;40.75;32.25;19.75
76238;PMS7003;65043;48.392;-4.472;2024-01-10T08:06:07;37.25;32.50;18.25
76238;PMS7003;65043;48.392;-4.472;2024-01-10T08:08:33;48.50;34.25;19.00
76238;PMS7003;65043;48.392;-4.472;2024-01-10T08:10:58;42.75;36.00;19.75
76238;PMS7003;65043;48.392;-4.472;2024-01-10T08:13:24;32.25;23.00;17.00
76238;PMS7003;65043;48.392;-4.472;2024-01-10T08:15:50;38.25;30.25;19.50
76238;PMS7003;65043;48.392;-4.472;2024-01-10T08:18:16;39.50;34.75;21.25
76238;PMS7003;65043;48.392;-4.472;2024-01-10T08:20:41;46.50;34.75;19.25
76238;PMS7003;65043;48.392;-4.472;2024-01-10T08:23:07;42.75;28.75;19.75
76238;PMS7003;65043;48.392;-4.472;2024-01-10T08:25:33;35.00;30.00;20.25
76238;PMS7003;65043;48.392;-4.472;2024-01-10T08:27:59;33.75;26.75;18.75
76238;PMS7003;65043;48.392;-4.472;2024-01-10T08:30:24;46.00;35.75;21.00
76238;PMS7003;65043;48.392;-4.472;2024-01-10T08:32:52;32.75;28.50;20.00
76238;PMS7003;65043;48.392;-4.472;2024-01-10T08:35:17;41.75;31.00;18.25
76238;PMS7003;65043;48.392;-4.472;2024-01-10T08:37:44;35.25;29.75;17.75
76238;PMS7003;65043;48.392;-4.472;2024-01-10T08:40:13;26.25;26.25;16.75
76238;PMS7003;65043;48.392;-4.472;2024-01-10T08:42:46;31.75;24.50;14.00
76238;PMS7003;65043;48.392;-4.472;2024-01-10T08:45:12;39.00;33.00;20.00
76238;PMS7003;65043;48.392;-4.472;2024-01-10T08:47:50;41.25;28.50;19.50
76238;PMS7003;65043;48.392;-4.472;2024-01-10T08:50:21;38.00;32.50;20.00
76238;PMS7003;65043;48.392;-4.472;2024-01-10T08:52:57;44.50;31.50;20.00
76238;PMS7003;65043;48.392;-4.472;2024-01-10T08:55:28;43.75;34.75;20.00
76238;PMS7003;65043;48.392;-4.472;2024-01-10T08:58:05;38.25;32.00;21.00
76238;PMS7003;65043;48.392;-4.472;2024-01-10T09:00:33;34.75;31.75;14.00
76238;PMS7003;65043;48.392;-4.472;2024-01-10T09:02:59;40.50;33.75;20.75
76238;PMS7003;65043;48.392;-4.472;2024-01-10T09:05:41;41.00;33.75;20.00
76238;PMS7003;65043;48.392;-4.472;2024-01-10T09:08:06;40.25;35.25;22.50
76238;PMS7003;65043;48.392;-4.472;2024-01-10T09:10:32;40.00;34.25;20.75
76238;PMS7003;65043;48.392;-4.472;2024-01-10T09:16:38;39.00;29.50;18.25
76238;PMS7003;65043;48.392;-4.472;2024-01-10T09:19:04;39.75;32.25;19.75
76238;PMS7003;65043;48.392;-4.472;2024-01-10T09:21:29;46.25;37.75;23.50
76238;PMS7003;65043;48.392;-4.472;2024-01-10T09:23:55;77.75;56.75;33.00
76238;PMS7003;65043;48.392;-4.472;2024-01-10T09:26:21;143.50;127.00;65.50
76238;PMS7003;65043;48.392;-4.472;2024-01-10T09:28:46;82.25;61.25;37.00
76238;PMS7003;65043;48.392;-4.472;2024-01-10T09:31:12;73.00;55.00;33.25
76238;PMS7003;65043;48.392;-4.472;2024-01-10T09:33:37;46.50;41.25;23.25
76238;PMS7003;65043;48.392;-4.472;2024-01-10T09:36:03;38.00;32.00;19.25
76238;PMS7003;65043;48.392;-4.472;2024-01-10T09:38:29;41.00;33.75;18.25
76238;PMS7003;65043;48.392;-4.472;2024-01-10T09:40:56;33.75;27.00;16.50
76238;PMS7003;65043;48.392;-4.472;2024-01-10T09:43:28;39.00;29.50;17.00
76238;PMS7003;65043;48.392;-4.472;2024-01-10T09:45:55;33.00;25.75;17.00
76238;PMS7003;65043;48.392;-4.472;2024-01-10T09:48:23;30.00;25.50;16.75
76238;PMS7003;65043;48.392;-4.472;2024-01-10T09:50:49;27.75;26.75;15.25
76238;PMS7003;65043;48.392;-4.472;2024-01-10T09:53:20;26.75;23.00;16.00
76238;PMS7003;65043;48.392;-4.472;2024-01-10T09:55:48;38.75;29.75;17.75
76238;PMS7003;65043;48.392;-4.472;2024-01-10T10:02:56;32.25;25.50;14.75
76238;PMS7003;65043;48.392;-4.472;2024-01-10T10:05:24;35.75;28.50;16.00
76238;PMS7003;65043;48.392;-4.472;2024-01-10T10:08:09;26.00;21.75;11.25
76238;PMS7003;65043;48.392;-4.472;2024-01-10T10:10:48;22.75;21.25;10.50
76238;PMS7003;65043;48.392;-4.472;2024-01-10T10:13:24;32.00;24.75;15.25
76238;PMS7003;65043;48.392;-4.472;2024-01-10T10:15:57;30.75;26.00;16.00
76238;PMS7003;65043;48.392;-4.472;2024-01-10T10:18:24;25.00;20.25;10.25
76238;PMS7003;65043;48.392;-4.472;2024-01-10T10:20:49;35.25;22.25;13.25
76238;PMS7003;65043;48.392;-4.472;2024-01-10T10:23:33;26.50;23.25;14.75
76238;PMS7003;65043;48.392;-4.472;2024-01-10T10:25:58;33.25;24.50;14.50
76238;PMS7003;65043;48.392;-4.472;2024-01-10T10:28:48;23.50;19.25;13.00
76238;PMS7003;65043;48.392;-4.472;2024-01-10T10:31:15;29.25;20.25;14.25
76238;PMS7003;65043;48.392;-4.472;2024-01-10T10:33:46;26.50;21.75;14.25
76238;PMS7003;65043;48.392;-4.472;2024-01-10T10:36:16;24.50;19.25;12.50
76238;PMS7003;65043;48.392;-4.472;2024-01-10T10:38:42;30.50;26.00;13.50
76238;PMS7003;65043;48.392;-4.472;2024-01-10T10:41:07;24.00;19.25;12.25
76238;PMS7003;65043;48.392;-4.472;2024-01-10T10:43:36;24.25;20.25;13.00
76238;PMS7003;65043;48.392;-4.472;2024-01-10T10:46:12;26.25;21.50;12.00
76238;PMS7003;65043;48.392;-4.472;2024-01-10T10:48:37;22.25;18.00;12.25
76238;PMS7003;65043;48.392;-4.472;2024-01-10T10:51:27;26.75;20.75;14.00
76238;PMS7003;65043;48.392;-4.472;2024-01-10T10:53:59;25.50;20.50;11.75
76238;PMS7003;65043;48.392;-4.472;2024-01-10T10:56:25;29.75;22.25;13.25
76238;PMS7003;65043;48.392;-4.472;2024-01-10T10:58:57;28.50;24.00;14.00
76238;PMS7003;65043;48.392;-4.472;2024-01-10T11:16:38;31.25;27.00;15.25
76238;PMS7003;65043;48.392;-4.472;2024-01-10T11:22:51;26.25;21.25;13.75
76238;PMS7003;65043;48.392;-4.472;2024-01-10T11:25:40;32.00;27.25;15.00
76238;PMS7003;65043;48.392;-4.472;2024-01-10T11:28:06;30.00;24.75;15.25
76238;PMS7003;65043;48.392;-4.472;2024-01-10T11:30:35;28.50;23.50;14.00
76238;PMS7003;65043;48.392;-4.472;2024-01-10T11:33:25;34.75;31.00;16.50
76238;PMS7003;65043;48.392;-4.472;2024-01-10T11:36:06;28.75;27.00;15.50
76238;PMS7003;65043;48.392;-4.472;2024-01-10T11:41:13;40.25;28.50;15.75
76238;PMS7003;65043;48.392;-4.472;2024-01-10T11:43:45;26.50;23.00;12.75
76238;PMS7003;65043;48.392;-4.472;2024-01-10T11:46:13;36.75;29.25;18.50
76238;PMS7003;65043;48.392;-4.472;2024-01-10T11:48:38;43.00;30.00;19.00
76238;PMS7003;65043;48.392;-4.472;2024-01-10T11:51:04;37.50;31.25;19.00
76238;PMS7003;65043;48.392;-4.472;2024-01-10T11:53:39;37.00;26.75;15.00
76238;PMS7003;65043;48.392;-4.472;2024-01-10T11:56:10;106.50;81.75;44.00
76238;PMS7003;65043;48.392;-4.472;2024-01-10T11:58:54;80.50;61.00;36.75
76238;PMS7003;65043;48.392;-4.472;2024-01-10T12:01:28;113.25;85.25;47.25
76238;PMS7003;65043;48.392;-4.472;2024-01-10T12:03:54;80.75;60.25;34.25
76238;PMS7003;65043;48.392;-4.472;2024-01-10T12:06:21;53.25;38.25;22.00
76238;PMS7003;65043;48.392;-4.472;2024-01-10T12:08:47;53.75;40.25;24.00
76238;PMS7003;65043;48.392;-4.472;2024-01-10T12:11:14;43.75;36.75;22.00
76238;PMS7003;65043;48.392;-4.472;2024-01-10T12:13:41;50.00;39.00;25.00
76238;PMS7003;65043;48.392;-4.472;2024-01-10T12:16:07;42.50;34.25;19.75
76238;PMS7003;65043;48.392;-4.472;2024-01-10T12:18:32;44.50;38.00;24.00
76238;PMS7003;65043;48.392;-4.472;2024-01-10T12:20:58;42.75;33.75;19.00
76238;PMS7003;65043;48.392;-4.472;2024-01-10T12:23:24;35.75;30.25;16.25
76238;PMS7003;65043;48.392;-4.472;2024-01-10T12:25:52;41.75;35.50;21.50
76238;PMS7003;65043;48.392;-4.472;2024-01-10T12:28:17;34.50;30.75;18.75
76238;PMS7003;65043;48.392;-4.472;2024-01-10T12:30:43;38.00;33.75;18.75
76238;PMS7003;65043;48.392;-4.472;2024-01-10T12:33:09;41.75;33.00;18.75
76238;PMS7003;65043;48.392;-4.472;2024-01-10T12:35:35;46.75;37.25;22.00
76238;PMS7003;65043;48.392;-4.472;2024-01-10T12:38:00;35.50;31.00;19.75
76238;PMS7003;65043;48.392;-4.472;2024-01-10T12:40:26;40.75;30.00;19.25
76238;PMS7003;65043;48.392;-4.472;2024-01-10T12:43:02;43.00;35.50;21.25
76238;PMS7003;65043;48.392;-4.472;2024-01-10T12:45:29;39.50;35.50;20.50
76238;PMS7003;65043;48.392;-4.472;2024-01-10T12:47:55;43.00;34.75;20.75
76238;PMS7003;65043;48.392;-4.472;2024-01-10T12:50:22;42.50;36.75;21.75
76238;PMS7003;65043;48.392;-4.472;2024-01-10T12:52:47;47.50;37.75;20.00
76238;PMS7003;65043;48.392;-4.472;2024-01-10T12:55:13;44.25;37.50;23.75
76238;PMS7003;65043;48.392;-4.472;2024-01-10T12:57:39;41.50;37.50;22.50
76238;PMS7003;65043;48.392;-4.472;2024-01-10T13:00:05;47.50;38.25;21.25
76238;PMS7003;65043;48.392;-4.472;2024-01-10T13:02:33;53.00;38.00;23.75
76238;PMS7003;65043;48.392;-4.472;2024-01-10T13:05:02;45.75;37.75;23.50
76238;PMS7003;65043;48.392;-4.472;2024-01-10T13:07:34;42.00;35.75;20.50
76238;PMS7003;65043;48.392;-4.472;2024-01-10T13:10:00;51.25;38.25;24.75
76238;PMS7003;65043;48.392;-4.472;2024-01-10T13:12:26;44.75;37.00;24.75
76238;PMS7003;65043;48.392;-4.472;2024-01-10T13:14:52;46.00;37.25;20.25
76238;PMS7003;65043;48.392;-4.472;2024-01-10T13:17:18;46.50;37.50;21.50
76238;PMS7003;65043;48.392;-4.472;2024-01-10T13:19:45;42.25;31.50;22.25
76238;PMS7003;65043;48.392;-4.472;2024-01-10T13:22:14;56.50;42.25;25.00
76238;PMS7003;65043;48.392;-4.472;2024-01-10T13:24:44;45.00;38.25;22.00
76238;PMS7003;65043;48.392;-4.472;2024-01-10T13:27:10;47.00;38.00;22.25
76238;PMS7003;65043;48.392;-4.472;2024-01-10T13:29:36;46.25;38.25;21.50
76238;PMS7003;65043;48.392;-4.472;2024-01-10T13:36:15;48.75;37.50;22.00
76238;PMS7003;65043;48.392;-4.472;2024-01-10T13:38:40;46.00;41.25;25.00
76238;PMS7003;65043;48.392;-4.472;2024-01-10T13:41:06;47.25;38.75;25.00
76238;PMS7003;65043;48.392;-4.472;2024-01-10T13:43:31;42.75;36.25;22.00
76238;PMS7003;65043;48.392;-4.472;2024-01-10T13:45:57;54.50;38.50;20.75
76238;PMS7003;65043;48.392;-4.472;2024-01-10T13:48:26;41.75;36.25;23.25
76238;PMS7003;65043;48.392;-4.472;2024-01-10T13:51:18;43.25;40.00;24.00
76238;PMS7003;65043;48.392;-4.472;2024-01-10T13:54:00;50.50;39.25;25.75
76238;PMS7003;65043;48.392;-4.472;2024-01-10T13:59:50;38.75;31.50;22.00
76238;PMS7003;65043;48.392;-4.472;2024-01-10T14:02:19;40.00;33.50;23.50
76238;PMS7003;65043;48.392;-4.472;2024-01-10T14:04:44;51.25;40.25;23.75
76238;PMS7003;65043;48.392;-4.472;2024-01-10T14:07:10;45.75;36.50;21.75
76238;PMS7003;65043;48.392;-4.472;2024-01-10T14:09:38;46.25;37.25;24.75
76238;PMS7003;65043;48.392;-4.472;2024-01-10T14:12:03;55.50;40.00;24.50